McAdenville, North Carolina
Current Conditions -  °F | °C
As of 12:54 AM on Thursday 27 Nov 2014 (Local Time) from KAKH Reporting Station
Overcast Overcast  
Wind Chill: 41°   Ceiling: 10000
Heat Index: 41°   Visibility: 10mi
Dew Point: 33°   Wind: 3mph
Humidity: 73%   Direction: NA
Pressure: 30.01"   Gusts: NA
Location:  35.26°N, 81.08°W
Report Text: KAKH 270554Z AUTO VRB03KT 10SM OVC100 05/01 A3001 RMK AO2 SLP166 T00500006 10083 20033 53001
Loading
Personal Weather Stations






























Interactive Weather Map New forecast layout! Learn more

10-Day Weather Forecast

Advertisements
Track Severe Weather on mobile